sensor_id;sensor_type;location;lat;lon;timestamp;pressure;altitude;pressure_sealevel;temperature;humidity
64080;BME280;51042;49.696;10.808;2022-12-28T00:00:26;99285.06;;;-2.06;100.00
64080;BME280;51042;49.696;10.808;2022-12-28T00:02:51;99275.28;;;-2.10;100.00
64080;BME280;51042;49.696;10.808;2022-12-28T00:05:17;99273.03;;;-2.08;100.00
64080;BME280;51042;49.696;10.808;2022-12-28T00:07:42;99269.13;;;-2.11;100.00
64080;BME280;51042;49.696;10.808;2022-12-28T00:10:07;99266.75;;;-2.12;100.00
64080;BME280;51042;49.696;10.808;2022-12-28T00:12:33;99256.31;;;-2.14;100.00
64080;BME280;51042;49.696;10.808;2022-12-28T00:14:58;99253.00;;;-2.11;100.00
64080;BME280;51042;49.696;10.808;2022-12-28T00:17:23;99257.59;;;-2.11;100.00
64080;BME280;51042;49.696;10.808;2022-12-28T00:19:48;99249.25;;;-2.18;100.00
64080;BME280;51042;49.696;10.808;2022-12-28T00:22:14;99256.00;;;-2.12;100.00
64080;BME280;51042;49.696;10.808;2022-12-28T00:24:39;99253.31;;;-2.12;100.00
64080;BME280;51042;49.696;10.808;2022-12-28T00:27:04;99261.28;;;-2.16;100.00
64080;BME280;51042;49.696;10.808;2022-12-28T00:29:29;99248.94;;;-2.17;100.00
64080;BME280;51042;49.696;10.808;2022-12-28T00:31:55;99258.91;;;-2.17;100.00
64080;BME280;51042;49.696;10.808;2022-12-28T00:34:20;99254.63;;;-2.18;100.00
64080;BME280;51042;49.696;10.808;2022-12-28T00:36:45;99256.28;;;-2.26;100.00
64080;BME280;51042;49.696;10.808;2022-12-28T00:39:13;99254.13;;;-2.32;100.00
64080;BME280;51042;49.696;10.808;2022-12-28T00:41:38;99253.19;;;-2.36;100.00
64080;BME280;51042;49.696;10.808;2022-12-28T00:44:03;99236.88;;;-2.31;100.00
64080;BME280;51042;49.696;10.808;2022-12-28T00:46:29;99257.25;;;-2.30;100.00
64080;BME280;51042;49.696;10.808;2022-12-28T00:48:54;99257.16;;;-2.34;100.00
64080;BME280;51042;49.696;10.808;2022-12-28T00:51:19;99246.31;;;-2.25;100.00
64080;BME280;51042;49.696;10.808;2022-12-28T00:53:44;99243.56;;;-2.17;100.00
64080;BME280;51042;49.696;10.808;2022-12-28T00:56:13;99240.19;;;-2.14;100.00
64080;BME280;51042;49.696;10.808;2022-12-28T00:58:39;99253.19;;;-2.16;100.00
64080;BME280;51042;49.696;10.808;2022-12-28T01:01:05;99239.75;;;-2.16;100.00
64080;BME280;51042;49.696;10.808;2022-12-28T01:03:34;99242.25;;;-2.11;100.00
64080;BME280;51042;49.696;10.808;2022-12-28T01:06:03;99246.28;;;-2.04;100.00
64080;BME280;51042;49.696;10.808;2022-12-28T01:08:28;99236.34;;;-2.04;100.00
64080;BME280;51042;49.696;10.808;2022-12-28T01:10:54;99230.28;;;-2.01;100.00
64080;BME280;51042;49.696;10.808;2022-12-28T01:13:19;99212.72;;;-1.98;100.00
64080;BME280;51042;49.696;10.808;2022-12-28T01:15:44;99225.38;;;-1.99;100.00
64080;BME280;51042;49.696;10.808;2022-12-28T01:18:09;99222.69;;;-1.99;100.00
64080;BME280;51042;49.696;10.808;2022-12-28T01:20:34;99226.94;;;-1.98;100.00
64080;BME280;51042;49.696;10.808;2022-12-28T01:22:59;99219.78;;;-1.94;100.00
64080;BME280;51042;49.696;10.808;2022-12-28T01:25:24;99217.41;;;-1.95;100.00
64080;BME280;51042;49.696;10.808;2022-12-28T01:27:50;99209.81;;;-1.93;100.00
64080;BME280;51042;49.696;10.808;2022-12-28T01:30:15;99209.59;;;-1.88;100.00
64080;BME280;51042;49.696;10.808;2022-12-28T01:32:40;99205.00;;;-1.88;100.00
64080;BME280;51042;49.696;10.808;2022-12-28T01:35:05;99211.81;;;-1.90;100.00
64080;BME280;51042;49.696;10.808;2022-12-28T01:37:31;99205.22;;;-1.93;100.00
64080;BME280;51042;49.696;10.808;2022-12-28T01:39:56;99201.75;;;-1.93;100.00
64080;BME280;51042;49.696;10.808;2022-12-28T01:42:21;99198.25;;;-1.94;100.00
64080;BME280;51042;49.696;10.808;2022-12-28T01:44:47;99190.19;;;-1.94;100.00
64080;BME280;51042;49.696;10.808;2022-12-28T01:47:14;99179.22;;;-1.89;100.00
64080;BME280;51042;49.696;10.808;2022-12-28T01:49:41;99177.56;;;-1.81;100.00
64080;BME280;51042;49.696;10.808;2022-12-28T01:52:10;99173.88;;;-1.77;100.00
64080;BME280;51042;49.696;10.808;2022-12-28T01:54:41;99159.41;;;-1.72;100.00
64080;BME280;51042;49.696;10.808;2022-12-28T01:57:08;99162.66;;;-1.67;100.00
64080;BME280;51042;49.696;10.808;2022-12-28T01:59:35;99158.19;;;-1.62;100.00
64080;BME280;51042;49.696;10.808;2022-12-28T02:02:02;99148.53;;;-1.63;100.00
64080;BME280;51042;49.696;10.808;2022-12-28T02:04:28;99147.09;;;-1.61;100.00
64080;BME280;51042;49.696;10.808;2022-12-28T02:06:53;99144.84;;;-1.59;100.00
64080;BME280;51042;49.696;10.808;2022-12-28T02:09:20;99146.31;;;-1.61;100.00
64080;BME280;51042;49.696;10.808;2022-12-28T02:11:47;99150.13;;;-1.62;100.00
64080;BME280;51042;49.696;10.808;2022-12-28T02:14:13;99147.88;;;-1.60;100.00
64080;BME280;51042;49.696;10.808;2022-12-28T02:16:39;99140.56;;;-1.60;100.00
64080;BME280;51042;49.696;10.808;2022-12-28T02:19:04;99134.06;;;-1.59;100.00
64080;BME280;51042;49.696;10.808;2022-12-28T02:27:01;99104.81;;;-1.48;100.00
64080;BME280;51042;49.696;10.808;2022-12-28T02:37:14;99107.63;;;-1.33;100.00
64080;BME280;51042;49.696;10.808;2022-12-28T02:39:43;99095.94;;;-1.37;100.00
64080;BME280;51042;49.696;10.808;2022-12-28T02:42:10;99093.47;;;-1.42;100.00
64080;BME280;51042;49.696;10.808;2022-12-28T02:44:36;99098.84;;;-1.42;100.00
64080;BME280;51042;49.696;10.808;2022-12-28T02:47:20;99097.66;;;-1.44;100.00
64080;BME280;51042;49.696;10.808;2022-12-28T02:50:05;99093.38;;;-1.45;100.00
64080;BME280;51042;49.696;10.808;2022-12-28T02:58:23;99066.94;;;-1.43;100.00
64080;BME280;51042;49.696;10.808;2022-12-28T03:01:15;99065.91;;;-1.39;100.00
64080;BME280;51042;49.696;10.808;2022-12-28T03:06:15;99042.31;;;-1.30;100.00
64080;BME280;51042;49.696;10.808;2022-12-28T03:09:11;99038.84;;;-1.30;100.00
64080;BME280;51042;49.696;10.808;2022-12-28T03:11:41;99026.63;;;-1.28;100.00
64080;BME280;51042;49.696;10.808;2022-12-28T03:14:08;99032.09;;;-1.24;100.00
64080;BME280;51042;49.696;10.808;2022-12-28T03:16:37;99038.81;;;-1.18;100.00
64080;BME280;51042;49.696;10.808;2022-12-28T03:19:21;99026.78;;;-1.08;100.00
64080;BME280;51042;49.696;10.808;2022-12-28T03:22:07;99031.59;;;-1.02;100.00
64080;BME280;51042;49.696;10.808;2022-12-28T03:24:52;99029.22;;;-1.03;100.00
64080;BME280;51042;49.696;10.808;2022-12-28T03:27:37;99032.97;;;-1.08;100.00
64080;BME280;51042;49.696;10.808;2022-12-28T03:30:21;99031.63;;;-1.14;100.00
64080;BME280;51042;49.696;10.808;2022-12-28T03:33:05;99029.59;;;-1.17;100.00
64080;BME280;51042;49.696;10.808;2022-12-28T03:35:41;99011.22;;;-1.15;100.00
64080;BME280;51042;49.696;10.808;2022-12-28T03:38:09;99004.00;;;-1.11;100.00
64080;BME280;51042;49.696;10.808;2022-12-28T03:43:06;98991.78;;;-1.08;100.00
64080;BME280;51042;49.696;10.808;2022-12-28T03:45:55;98999.84;;;-1.08;100.00
64080;BME280;51042;49.696;10.808;2022-12-28T03:48:21;99007.56;;;-1.07;100.00
64080;BME280;51042;49.696;10.808;2022-12-28T03:50:48;98999.50;;;-1.07;100.00
64080;BME280;51042;49.696;10.808;2022-12-28T03:53:19;98999.94;;;-1.05;100.00
64080;BME280;51042;49.696;10.808;2022-12-28T03:55:45;99005.78;;;-1.03;100.00
64080;BME280;51042;49.696;10.808;2022-12-28T03:58:10;98998.13;;;-1.01;100.00
64080;BME280;51042;49.696;10.808;2022-12-28T04:00:35;98993.63;;;-0.97;100.00
64080;BME280;51042;49.696;10.808;2022-12-28T04:03:00;98993.03;;;-0.90;100.00
64080;BME280;51042;49.696;10.808;2022-12-28T04:05:25;98978.00;;;-0.91;100.00
64080;BME280;51042;49.696;10.808;2022-12-28T04:07:50;98971.31;;;-0.97;100.00
64080;BME280;51042;49.696;10.808;2022-12-28T04:10:15;98976.50;;;-1.04;100.00
64080;BME280;51042;49.696;10.808;2022-12-28T04:12:41;98961.78;;;-1.07;100.00
64080;BME280;51042;49.696;10.808;2022-12-28T04:15:06;98960.00;;;-1.03;100.00
64080;BME280;51042;49.696;10.808;2022-12-28T04:17:31;98957.31;;;-1.03;100.00
64080;BME280;51042;49.696;10.808;2022-12-28T04:19:56;98953.22;;;-0.97;100.00
64080;BME280;51042;49.696;10.808;2022-12-28T04:22:22;98955.56;;;-0.95;100.00
64080;BME280;51042;49.696;10.808;2022-12-28T04:24:47;98955.22;;;-0.94;100.00
64080;BME280;51042;49.696;10.808;2022-12-28T04:27:12;98954.97;;;-0.89;100.00
64080;BME280;51042;49.696;10.808;2022-12-28T04:29:38;98948.13;;;-0.86;100.00
64080;BME280;51042;49.696;10.808;2022-12-28T04:32:03;98952.47;;;-0.82;100.00
64080;BME280;51042;49.696;10.808;2022-12-28T04:34:28;98958.63;;;-0.81;100.00
64080;BME280;51042;49.696;10.808;2022-12-28T04:36:53;98949.09;;;-0.78;100.00
64080;BME280;51042;49.696;10.808;2022-12-28T04:39:19;98955.78;;;-0.72;100.00
64080;BME280;51042;49.696;10.808;2022-12-28T04:41:44;98957.44;;;-0.68;100.00
64080;BME280;51042;49.696;10.808;2022-12-28T04:44:09;98958.22;;;-0.67;100.00
64080;BME280;51042;49.696;10.808;2022-12-28T04:46:34;98957.16;;;-0.63;100.00
64080;BME280;51042;49.696;10.808;2022-12-28T04:48:59;98953.69;;;-0.63;100.00
64080;BME280;51042;49.696;10.808;2022-12-28T04:51:25;98952.56;;;-0.62;100.00
64080;BME280;51042;49.696;10.808;2022-12-28T04:53:52;98948.41;;;-0.60;100.00
64080;BME280;51042;49.696;10.808;2022-12-28T04:56:18;98960.50;;;-0.54;100.00
64080;BME280;51042;49.696;10.808;2022-12-28T04:58:43;98952.22;;;-0.45;100.00
64080;BME280;51042;49.696;10.808;2022-12-28T05:01:11;98939.38;;;-0.36;100.00
64080;BME280;51042;49.696;10.808;2022-12-28T05:03:37;98938.38;;;-0.28;100.00
64080;BME280;51042;49.696;10.808;2022-12-28T05:06:03;98933.94;;;-0.20;100.00
64080;BME280;51042;49.696;10.808;2022-12-28T05:08:33;98933.31;;;-0.14;100.00
64080;BME280;51042;49.696;10.808;2022-12-28T05:10:59;98929.63;;;-0.06;100.00
64080;BME280;51042;49.696;10.808;2022-12-28T05:13:25;98934.41;;;0.01;100.00
64080;BME280;51042;49.696;10.808;2022-12-28T05:15:50;98923.34;;;0.06;100.00
64080;BME280;51042;49.696;10.808;2022-12-28T05:18:15;98926.13;;;0.10;100.00
64080;BME280;51042;49.696;10.808;2022-12-28T05:20:40;98921.19;;;0.12;100.00
64080;BME280;51042;49.696;10.808;2022-12-28T05:23:05;98917.25;;;0.09;100.00
64080;BME280;51042;49.696;10.808;2022-12-28T05:25:31;98916.81;;;0.07;100.00
64080;BME280;51042;49.696;10.808;2022-12-28T05:27:56;98914.91;;;0.08;100.00
64080;BME280;51042;49.696;10.808;2022-12-28T05:30:21;98913.34;;;0.07;100.00
64080;BME280;51042;49.696;10.808;2022-12-28T05:32:46;98924.50;;;0.05;100.00
64080;BME280;51042;49.696;10.808;2022-12-28T05:35:11;98918.38;;;0.08;100.00
64080;BME280;51042;49.696;10.808;2022-12-28T05:37:36;98919.91;;;0.06;100.00
64080;BME280;51042;49.696;10.808;2022-12-28T05:40:02;98928.75;;;0.06;100.00
64080;BME280;51042;49.696;10.808;2022-12-28T05:42:27;98926.13;;;0.10;100.00
64080;BME280;51042;49.696;10.808;2022-12-28T05:44:52;98913.94;;;0.16;100.00
64080;BME280;51042;49.696;10.808;2022-12-28T05:47:17;98914.78;;;0.20;100.00
64080;BME280;51042;49.696;10.808;2022-12-28T05:49:43;98917.91;;;0.22;100.00
64080;BME280;51042;49.696;10.808;2022-12-28T05:52:08;98919.13;;;0.24;100.00
64080;BME280;51042;49.696;10.808;2022-12-28T05:54:33;98917.19;;;0.25;100.00
64080;BME280;51042;49.696;10.808;2022-12-28T05:56:58;98924.16;;;0.26;100.00
64080;BME280;51042;49.696;10.808;2022-12-28T05:59:23;98914.50;;;0.25;100.00
64080;BME280;51042;49.696;10.808;2022-12-28T06:01:48;98912.19;;;0.23;100.00
64080;BME280;51042;49.696;10.808;2022-12-28T06:04:17;98909.38;;;0.20;100.00
64080;BME280;51042;49.696;10.808;2022-12-28T06:06:43;98919.78;;;0.18;100.00
64080;BME280;51042;49.696;10.808;2022-12-28T06:09:08;98914.78;;;0.20;100.00
64080;BME280;51042;49.696;10.808;2022-12-28T06:11:34;98915.22;;;0.22;100.00
64080;BME280;51042;49.696;10.808;2022-12-28T06:13:59;98903.66;;;0.21;100.00
64080;BME280;51042;49.696;10.808;2022-12-28T06:16:25;98902.91;;;0.24;100.00
64080;BME280;51042;49.696;10.808;2022-12-28T06:18:51;98902.66;;;0.29;100.00
64080;BME280;51042;49.696;10.808;2022-12-28T06:21:20;98898.13;;;0.33;100.00
64080;BME280;51042;49.696;10.808;2022-12-28T06:23:46;98890.06;;;0.37;100.00
64080;BME280;51042;49.696;10.808;2022-12-28T06:26:12;98888.66;;;0.43;100.00
64080;BME280;51042;49.696;10.808;2022-12-28T06:28:38;98887.97;;;0.46;100.00
64080;BME280;51042;49.696;10.808;2022-12-28T06:31:10;98887.63;;;0.48;100.00
64080;BME280;51042;49.696;10.808;2022-12-28T06:33:36;98895.78;;;0.51;100.00
64080;BME280;51042;49.696;10.808;2022-12-28T06:36:01;98888.50;;;0.55;100.00
64080;BME280;51042;49.696;10.808;2022-12-28T06:38:27;98889.38;;;0.59;100.00
64080;BME280;51042;49.696;10.808;2022-12-28T06:40:55;98884.81;;;0.63;100.00
64080;BME280;51042;49.696;10.808;2022-12-28T06:43:25;98874.06;;;0.67;100.00
64080;BME280;51042;49.696;10.808;2022-12-28T06:45:54;98865.63;;;0.68;100.00
64080;BME280;51042;49.696;10.808;2022-12-28T06:48:19;98867.97;;;0.70;100.00
64080;BME280;51042;49.696;10.808;2022-12-28T06:50:52;98864.06;;;0.67;100.00
64080;BME280;51042;49.696;10.808;2022-12-28T06:53:18;98864.50;;;0.69;100.00
64080;BME280;51042;49.696;10.808;2022-12-28T06:55:43;98855.16;;;0.67;100.00
64080;BME280;51042;49.696;10.808;2022-12-28T06:58:15;98856.31;;;0.66;100.00
64080;BME280;51042;49.696;10.808;2022-12-28T07:00:40;98850.16;;;0.65;100.00
64080;BME280;51042;49.696;10.808;2022-12-28T07:03:05;98844.31;;;0.63;100.00
64080;BME280;51042;49.696;10.808;2022-12-28T07:05:30;98845.44;;;0.62;100.00
64080;BME280;51042;49.696;10.808;2022-12-28T07:07:56;98840.47;;;0.64;100.00
64080;BME280;51042;49.696;10.808;2022-12-28T07:10:21;98835.13;;;0.68;100.00
64080;BME280;51042;49.696;10.808;2022-12-28T07:12:46;98833.25;;;0.72;100.00
64080;BME280;51042;49.696;10.808;2022-12-28T07:15:11;98827.13;;;0.71;100.00
64080;BME280;51042;49.696;10.808;2022-12-28T07:17:36;98818.63;;;0.73;100.00
64080;BME280;51042;49.696;10.808;2022-12-28T07:20:01;98816.66;;;0.70;100.00
64080;BME280;51042;49.696;10.808;2022-12-28T07:22:27;98813.53;;;0.68;100.00
64080;BME280;51042;49.696;10.808;2022-12-28T07:24:52;98815.88;;;0.69;100.00
64080;BME280;51042;49.696;10.808;2022-12-28T07:27:17;98822.47;;;0.72;100.00
64080;BME280;51042;49.696;10.808;2022-12-28T07:29:42;98809.38;;;0.74;100.00
64080;BME280;51042;49.696;10.808;2022-12-28T07:32:07;98811.31;;;0.73;100.00
64080;BME280;51042;49.696;10.808;2022-12-28T07:34:32;98816.72;;;0.73;100.00
64080;BME280;51042;49.696;10.808;2022-12-28T07:36:57;98807.81;;;0.73;100.00
64080;BME280;51042;49.696;10.808;2022-12-28T07:39:23;98812.09;;;0.74;100.00
64080;BME280;51042;49.696;10.808;2022-12-28T07:41:48;98816.38;;;0.75;100.00
64080;BME280;51042;49.696;10.808;2022-12-28T07:44:13;98817.97;;;0.79;100.00
64080;BME280;51042;49.696;10.808;2022-12-28T07:46:38;98821.94;;;0.86;100.00
64080;BME280;51042;49.696;10.808;2022-12-28T07:49:04;98820.50;;;0.92;100.00
64080;BME280;51042;49.696;10.808;2022-12-28T07:51:30;98813.59;;;0.94;100.00
64080;BME280;51042;49.696;10.808;2022-12-28T07:53:56;98814.00;;;0.96;100.00
64080;BME280;51042;49.696;10.808;2022-12-28T07:56:21;98812.09;;;0.97;100.00
64080;BME280;51042;49.696;10.808;2022-12-28T07:58:47;98812.94;;;1.01;100.00
64080;BME280;51042;49.696;10.808;2022-12-28T08:01:13;98815.34;;;1.06;100.00
64080;BME280;51042;49.696;10.808;2022-12-28T08:03:39;98806.16;;;1.10;100.00
64080;BME280;51042;49.696;10.808;2022-12-28T08:06:06;98798.09;;;1.14;100.00
64080;BME280;51042;49.696;10.808;2022-12-28T08:08:38;98795.84;;;1.19;100.00
64080;BME280;51042;49.696;10.808;2022-12-28T08:11:05;98799.06;;;1.25;100.00
64080;BME280;51042;49.696;10.808;2022-12-28T08:13:34;98803.94;;;1.42;100.00
64080;BME280;51042;49.696;10.808;2022-12-28T08:15:59;98798.81;;;1.63;100.00
64080;BME280;51042;49.696;10.808;2022-12-28T08:18:25;98802.81;;;1.73;100.00
64080;BME280;51042;49.696;10.808;2022-12-28T08:20:50;98804.84;;;1.80;100.00
64080;BME280;51042;49.696;10.808;2022-12-28T08:23:15;98811.59;;;1.93;100.00
64080;BME280;51042;49.696;10.808;2022-12-28T08:25:40;98808.31;;;2.10;100.00
64080;BME280;51042;49.696;10.808;2022-12-28T08:28:05;98810.44;;;2.27;100.00
64080;BME280;51042;49.696;10.808;2022-12-28T08:30:31;98799.25;;;2.29;100.00
64080;BME280;51042;49.696;10.808;2022-12-28T08:32:56;98803.44;;;2.23;100.00
64080;BME280;51042;49.696;10.808;2022-12-28T08:35:21;98805.38;;;2.22;100.00
64080;BME280;51042;49.696;10.808;2022-12-28T08:37:46;98798.78;;;2.20;100.00
64080;BME280;51042;49.696;10.808;2022-12-28T08:40:11;98795.69;;;2.21;100.00
64080;BME280;51042;49.696;10.808;2022-12-28T08:42:36;98801.50;;;2.23;100.00
64080;BME280;51042;49.696;10.808;2022-12-28T08:45:02;98798.91;;;2.30;100.00
64080;BME280;51042;49.696;10.808;2022-12-28T08:47:27;98801.72;;;2.41;100.00
64080;BME280;51042;49.696;10.808;2022-12-28T08:49:52;98790.97;;;2.52;100.00
64080;BME280;51042;49.696;10.808;2022-12-28T08:52:17;98790.34;;;2.62;100.00
64080;BME280;51042;49.696;10.808;2022-12-28T08:54:42;98788.09;;;2.71;100.00
64080;BME280;51042;49.696;10.808;2022-12-28T08:57:07;98782.75;;;2.81;100.00
64080;BME280;51042;49.696;10.808;2022-12-28T08:59:33;98784.00;;;2.91;100.00
64080;BME280;51042;49.696;10.808;2022-12-28T09:01:58;98780.53;;;2.91;100.00
64080;BME280;51042;49.696;10.808;2022-12-28T09:04:23;98782.13;;;2.99;100.00
64080;BME280;51042;49.696;10.808;2022-12-28T09:06:48;98778.25;;;2.96;100.00
64080;BME280;51042;49.696;10.808;2022-12-28T09:09:14;98779.81;;;3.01;100.00
64080;BME280;51042;49.696;10.808;2022-12-28T09:11:40;98774.88;;;3.10;100.00
64080;BME280;51042;49.696;10.808;2022-12-28T09:14:07;98769.88;;;3.15;100.00
64080;BME280;51042;49.696;10.808;2022-12-28T09:16:32;98776.84;;;3.16;100.00
64080;BME280;51042;49.696;10.808;2022-12-28T09:18:59;98767.97;;;3.23;100.00
64080;BME280;51042;49.696;10.808;2022-12-28T09:21:25;98771.16;;;3.32;100.00
64080;BME280;51042;49.696;10.808;2022-12-28T09:23:51;98772.78;;;3.47;100.00
64080;BME280;51042;49.696;10.808;2022-12-28T09:26:23;98763.09;;;3.46;100.00
64080;BME280;51042;49.696;10.808;2022-12-28T09:28:50;98769.31;;;3.47;100.00
64080;BME280;51042;49.696;10.808;2022-12-28T09:31:16;98772.78;;;3.47;100.00
64080;BME280;51042;49.696;10.808;2022-12-28T09:33:41;98768.94;;;3.52;100.00
64080;BME280;51042;49.696;10.808;2022-12-28T09:38:50;98761.25;;;3.61;100.00
64080;BME280;51042;49.696;10.808;2022-12-28T09:43:48;98758.91;;;3.59;100.00
64080;BME280;51042;49.696;10.808;2022-12-28T09:46:15;98755.50;;;3.73;100.00
64080;BME280;51042;49.696;10.808;2022-12-28T09:48:50;98754.03;;;3.86;100.00
64080;BME280;51042;49.696;10.808;2022-12-28T09:51:18;98760.69;;;4.03;100.00
64080;BME280;51042;49.696;10.808;2022-12-28T09:53:44;98761.50;;;4.14;100.00
64080;BME280;51042;49.696;10.808;2022-12-28T09:58:53;98747.59;;;4.44;98.53
64080;BME280;51042;49.696;10.808;2022-12-28T10:01:18;98744.91;;;4.62;98.13
64080;BME280;51042;49.696;10.808;2022-12-28T10:03:45;98750.34;;;4.79;96.36
64080;BME280;51042;49.696;10.808;2022-12-28T10:06:12;98746.50;;;5.05;95.49
64080;BME280;51042;49.696;10.808;2022-12-28T10:08:40;98734.44;;;5.24;93.84
64080;BME280;51042;49.696;10.808;2022-12-28T10:11:06;98731.66;;;5.38;93.07
64080;BME280;51042;49.696;10.808;2022-12-28T10:13:35;98728.53;;;5.47;92.91
64080;BME280;51042;49.696;10.808;2022-12-28T10:16:02;98733.13;;;5.67;91.29
64080;BME280;51042;49.696;10.808;2022-12-28T10:18:28;98726.09;;;5.81;90.85
64080;BME280;51042;49.696;10.808;2022-12-28T10:20:53;98721.00;;;6.00;90.26
64080;BME280;51042;49.696;10.808;2022-12-28T10:23:23;98727.47;;;6.31;88.08
64080;BME280;51042;49.696;10.808;2022-12-28T10:25:50;98722.69;;;6.46;87.18
64080;BME280;51042;49.696;10.808;2022-12-28T10:28:16;98720.34;;;6.48;86.66
64080;BME280;51042;49.696;10.808;2022-12-28T10:30:45;98712.63;;;6.36;86.91
64080;BME280;51042;49.696;10.808;2022-12-28T10:33:15;98717.84;;;6.05;88.28
64080;BME280;51042;49.696;10.808;2022-12-28T10:35:41;98714.09;;;5.71;89.20
64080;BME280;51042;49.696;10.808;2022-12-28T10:40:44;98714.97;;;5.32;92.27
64080;BME280;51042;49.696;10.808;2022-12-28T10:43:15;98708.75;;;5.28;93.04
64080;BME280;51042;49.696;10.808;2022-12-28T10:45:45;98706.03;;;5.36;92.87
64080;BME280;51042;49.696;10.808;2022-12-28T10:48:13;98704.50;;;5.24;92.39
64080;BME280;51042;49.696;10.808;2022-12-28T10:53:14;98697.91;;;5.18;93.80
64080;BME280;51042;49.696;10.808;2022-12-28T10:55:39;98693.59;;;5.27;94.07
64080;BME280;51042;49.696;10.808;2022-12-28T10:58:23;98684.63;;;5.41;93.28
64080;BME280;51042;49.696;10.808;2022-12-28T11:00:56;98682.59;;;5.63;92.75
64080;BME280;51042;49.696;10.808;2022-12-28T11:03:23;98679.38;;;5.86;91.13
64080;BME280;51042;49.696;10.808;2022-12-28T11:05:49;98668.06;;;6.01;90.97
64080;BME280;51042;49.696;10.808;2022-12-28T11:08:14;98668.72;;;6.23;89.80
64080;BME280;51042;49.696;10.808;2022-12-28T11:10:39;98658.13;;;6.32;87.73
64080;BME280;51042;49.696;10.808;2022-12-28T11:13:07;98649.19;;;6.80;87.71
64080;BME280;51042;49.696;10.808;2022-12-28T11:18:52;98648.44;;;8.11;81.88
64080;BME280;51042;49.696;10.808;2022-12-28T11:24:19;98640.69;;;8.10;79.23
64080;BME280;51042;49.696;10.808;2022-12-28T11:27:15;98643.84;;;8.05;79.89
64080;BME280;51042;49.696;10.808;2022-12-28T11:38:48;98623.78;;;6.86;84.45
64080;BME280;51042;49.696;10.808;2022-12-28T11:46:59;98619.16;;;6.83;85.59
64080;BME280;51042;49.696;10.808;2022-12-28T11:49:48;98611.25;;;6.92;85.75
64080;BME280;51042;49.696;10.808;2022-12-28T11:55:03;98602.63;;;7.01;85.57
64080;BME280;51042;49.696;10.808;2022-12-28T11:57:47;98600.03;;;7.24;83.55
64080;BME280;51042;49.696;10.808;2022-12-28T12:02:57;98591.97;;;8.01;81.97
64080;BME280;51042;49.696;10.808;2022-12-28T12:05:47;98579.47;;;8.54;77.37
64080;BME280;51042;49.696;10.808;2022-12-28T12:13:43;98570.91;;;8.75;77.14
64080;BME280;51042;49.696;10.808;2022-12-28T12:16:16;98572.56;;;8.69;77.01
64080;BME280;51042;49.696;10.808;2022-12-28T12:19:00;98563.38;;;8.79;77.00
64080;BME280;51042;49.696;10.808;2022-12-28T12:21:29;98555.34;;;8.92;76.30
64080;BME280;51042;49.696;10.808;2022-12-28T12:23:57;98556.72;;;8.80;77.45
64080;BME280;51042;49.696;10.808;2022-12-28T12:26:35;98554.47;;;8.75;75.94
64080;BME280;51042;49.696;10.808;2022-12-28T12:29:16;98548.00;;;8.66;76.65
64080;BME280;51042;49.696;10.808;2022-12-28T12:31:45;98547.78;;;8.56;78.59
64080;BME280;51042;49.696;10.808;2022-12-28T12:34:26;98550.03;;;8.62;79.14
64080;BME280;51042;49.696;10.808;2022-12-28T12:37:13;98552.41;;;8.59;78.76
64080;BME280;51042;49.696;10.808;2022-12-28T12:39:48;98543.09;;;8.34;79.45
64080;BME280;51042;49.696;10.808;2022-12-28T12:44:47;98531.88;;;8.71;78.19
64080;BME280;51042;49.696;10.808;2022-12-28T12:47:23;98537.28;;;8.94;78.01
64080;BME280;51042;49.696;10.808;2022-12-28T12:52:29;98533.56;;;9.24;76.20
64080;BME280;51042;49.696;10.808;2022-12-28T13:00:31;98521.19;;;8.57;76.91
64080;BME280;51042;49.696;10.808;2022-12-28T13:05:51;98522.88;;;8.51;78.76
64080;BME280;51042;49.696;10.808;2022-12-28T13:08:19;98526.53;;;8.41;79.43
64080;BME280;51042;49.696;10.808;2022-12-28T13:10:46;98515.38;;;8.32;79.59
64080;BME280;51042;49.696;10.808;2022-12-28T13:13:21;98510.72;;;8.29;79.29
64080;BME280;51042;49.696;10.808;2022-12-28T13:15:49;98513.06;;;8.30;80.72
64080;BME280;51042;49.696;10.808;2022-12-28T13:18:16;98512.69;;;8.28;80.19
64080;BME280;51042;49.696;10.808;2022-12-28T13:20:52;98510.13;;;8.17;81.09
64080;BME280;51042;49.696;10.808;2022-12-28T13:23:18;98496.94;;;8.12;81.95
64080;BME280;51042;49.696;10.808;2022-12-28T13:25:45;98501.69;;;8.08;80.53
64080;BME280;51042;49.696;10.808;2022-12-28T13:28:18;98497.03;;;8.05;81.47
64080;BME280;51042;49.696;10.808;2022-12-28T13:30:53;98493.59;;;8.01;81.68
64080;BME280;51042;49.696;10.808;2022-12-28T13:33:40;98485.81;;;8.00;82.38
64080;BME280;51042;49.696;10.808;2022-12-28T13:39:07;98502.50;;;7.82;84.14
64080;BME280;51042;49.696;10.808;2022-12-28T13:41:34;98493.31;;;7.69;84.67
64080;BME280;51042;49.696;10.808;2022-12-28T13:46:36;98493.59;;;7.51;85.66
64080;BME280;51042;49.696;10.808;2022-12-28T13:49:02;98485.44;;;7.48;86.33
64080;BME280;51042;49.696;10.808;2022-12-28T13:51:28;98493.69;;;7.44;86.16
64080;BME280;51042;49.696;10.808;2022-12-28T13:53:54;98479.28;;;7.44;85.21
64080;BME280;51042;49.696;10.808;2022-12-28T13:56:22;98480.06;;;7.44;85.38
64080;BME280;51042;49.696;10.808;2022-12-28T13:58:49;98479.63;;;7.46;86.57
64080;BME280;51042;49.696;10.808;2022-12-28T14:01:17;98480.06;;;7.44;85.60
64080;BME280;51042;49.696;10.808;2022-12-28T14:03:44;98480.81;;;7.45;85.92
64080;BME280;51042;49.696;10.808;2022-12-28T14:06:09;98481.63;;;7.42;86.57
64080;BME280;51042;49.696;10.808;2022-12-28T14:08:38;98473.13;;;7.36;86.12
64080;BME280;51042;49.696;10.808;2022-12-28T14:11:03;98476.25;;;7.38;85.80
64080;BME280;51042;49.696;10.808;2022-12-28T14:13:30;98473.13;;;7.36;86.63
64080;BME280;51042;49.696;10.808;2022-12-28T14:15:56;98478.66;;;7.32;86.29
64080;BME280;51042;49.696;10.808;2022-12-28T14:18:21;98484.22;;;7.25;86.67